createdAt,value
2023-04-07T00:01:50.281Z,8.42
2023-04-07T00:04:18.708Z,8.41
2023-04-07T00:06:46.778Z,8.42
2023-04-07T00:09:15.229Z,8.43
2023-04-07T00:11:43.281Z,8.43
2023-04-07T00:14:11.408Z,8.43
2023-04-07T00:16:39.833Z,8.44
2023-04-07T00:19:09.461Z,8.45
2023-04-07T00:21:38.653Z,8.43
2023-04-07T00:24:07.742Z,8.45
2023-04-07T00:26:35.638Z,8.45
2023-04-07T00:29:03.815Z,8.46
2023-04-07T00:31:32.021Z,8.47
2023-04-07T00:34:00.123Z,8.46
2023-04-07T00:36:30.154Z,8.49
2023-04-07T00:38:58.247Z,8.47
2023-04-07T00:41:26.185Z,8.48
2023-04-07T00:43:54.154Z,8.49
2023-04-07T00:46:23.908Z,8.50
2023-04-07T00:48:51.969Z,8.49
2023-04-07T00:51:22.152Z,8.51
2023-04-07T00:53:51.464Z,8.51
2023-04-07T00:56:20.157Z,8.50
2023-04-07T00:58:48.451Z,8.50
2023-04-07T01:01:20.659Z,8.51
2023-04-07T01:03:55.061Z,8.51
2023-04-07T01:06:27.625Z,8.52
2023-04-07T01:09:03.373Z,8.51
2023-04-07T01:11:38.603Z,8.53
2023-04-07T01:14:08.019Z,8.53
2023-04-07T01:16:43.617Z,8.26
2023-04-07T01:19:20.078Z,8.49
2023-04-07T01:21:57.553Z,8.50
2023-04-07T01:24:47.084Z,8.52
2023-04-07T01:27:22.829Z,8.50
2023-04-07T01:29:54.857Z,8.49
2023-04-07T01:32:25.138Z,8.46
2023-04-07T01:34:54.673Z,8.46
2023-04-07T01:37:24.020Z,8.47
2023-04-07T01:39:53.352Z,8.45
2023-04-07T01:42:23.235Z,8.47
2023-04-07T01:44:54.318Z,8.47
2023-04-07T01:47:22.924Z,8.46
2023-04-07T01:49:52.072Z,8.47
2023-04-07T01:52:20.666Z,8.46
2023-04-07T01:54:49.757Z,8.48
2023-04-07T01:57:17.945Z,8.49
2023-04-07T01:59:46.336Z,8.49
2023-04-07T02:02:16.947Z,8.51
2023-04-07T02:04:55.782Z,8.53
2023-04-07T02:07:35.495Z,8.54
2023-04-07T02:10:06.685Z,8.53
2023-04-07T02:12:39.101Z,8.54
2023-04-07T02:15:14.438Z,8.55
2023-04-07T02:17:49.878Z,8.56
2023-04-07T02:20:18.971Z,8.55
2023-04-07T02:22:47.705Z,8.57
2023-04-07T02:25:26.033Z,8.57
2023-04-07T02:27:56.355Z,8.55
2023-04-07T02:30:26.615Z,8.56
2023-04-07T02:32:58.700Z,8.55
2023-04-07T02:35:26.464Z,8.55
2023-04-07T02:37:55.032Z,8.55
2023-04-07T02:40:25.681Z,8.57
2023-04-07T02:42:56.967Z,8.54
2023-04-07T02:45:24.988Z,8.54
2023-04-07T02:47:52.898Z,8.54
2023-04-07T02:50:26.111Z,8.55
2023-04-07T02:52:53.993Z,8.54
2023-04-07T02:55:21.794Z,8.55
2023-04-07T02:57:49.901Z,8.55
2023-04-07T03:00:29.324Z,8.53
2023-04-07T03:03:09.434Z,8.53
2023-04-07T03:05:41.422Z,8.54
2023-04-07T03:08:12.989Z,8.53
2023-04-07T03:10:41.667Z,8.54
2023-04-07T03:13:10.518Z,8.53
2023-04-07T03:15:38.839Z,8.53
2023-04-07T03:18:07.757Z,8.53
2023-04-07T03:20:36.037Z,8.54
2023-04-07T03:23:10.969Z,8.53
2023-04-07T03:25:39.021Z,8.53
2023-04-07T03:28:07.656Z,8.54
2023-04-07T03:30:39.161Z,8.54
2023-04-07T03:33:07.928Z,8.54
2023-04-07T03:35:35.997Z,8.54
2023-04-07T03:38:04.001Z,8.54
2023-04-07T03:40:35.688Z,8.55
2023-04-07T03:43:03.731Z,8.53
2023-04-07T03:45:31.699Z,8.54
2023-04-07T03:48:00.055Z,8.54
2023-04-07T03:50:28.374Z,8.54
2023-04-07T03:53:10.506Z,8.53
2023-04-07T03:55:39.932Z,8.55
2023-04-07T03:58:15.104Z,8.53
2023-04-07T04:00:46.382Z,8.53
2023-04-07T04:03:17.345Z,8.55
2023-04-07T04:06:06.973Z,8.51
2023-04-07T04:08:34.778Z,8.52
2023-04-07T04:11:04.426Z,8.52
2023-04-07T04:13:38.138Z,8.51
2023-04-07T04:16:07.890Z,8.51
2023-04-07T04:18:40.744Z,8.51
2023-04-07T04:21:10.614Z,8.49
2023-04-07T04:23:41.642Z,8.50
2023-04-07T04:26:10.983Z,8.51
2023-04-07T04:28:40.993Z,8.49
2023-04-07T04:31:10.116Z,8.49
2023-04-07T04:33:42.470Z,8.47
2023-04-07T04:36:10.523Z,8.49
2023-04-07T04:38:41.116Z,8.49
2023-04-07T04:41:18.141Z,8.49
2023-04-07T04:43:47.860Z,8.49
2023-04-07T04:46:19.769Z,8.49
2023-04-07T04:48:49.495Z,8.49
2023-04-07T04:51:18.869Z,8.48
2023-04-07T04:53:51.223Z,8.47
2023-04-07T04:56:21.882Z,8.49
2023-04-07T04:58:51.166Z,8.47
2023-04-07T05:01:27.632Z,8.47
2023-04-07T05:04:04.702Z,8.47
2023-04-07T05:06:32.872Z,8.47
2023-04-07T05:09:06.855Z,8.47
2023-04-07T05:11:43.940Z,8.48
2023-04-07T05:14:12.096Z,8.46
2023-04-07T05:16:44.641Z,8.44
2023-04-07T05:19:18.091Z,8.45
2023-04-07T05:21:46.701Z,8.45
2023-04-07T05:24:15.365Z,8.45
2023-04-07T05:26:46.769Z,8.46
2023-04-07T05:29:14.639Z,8.44
2023-04-07T05:31:42.505Z,8.45
2023-04-07T05:34:13.886Z,8.44
2023-04-07T05:36:47.411Z,8.43
2023-04-07T05:39:16.401Z,8.44
2023-04-07T05:41:46.588Z,8.44
2023-04-07T05:44:16.004Z,8.43
2023-04-07T05:46:43.983Z,8.44
2023-04-07T05:49:19.485Z,8.42
2023-04-07T05:51:53.394Z,8.43
2023-04-07T05:54:21.447Z,8.42
2023-04-07T05:56:51.691Z,8.43
2023-04-07T05:59:19.832Z,8.41
2023-04-07T06:01:47.663Z,8.42
2023-04-07T06:04:16.221Z,8.42
2023-04-07T06:06:46.250Z,8.42
2023-04-07T06:09:14.218Z,8.41
2023-04-07T06:11:42.599Z,8.42
2023-04-07T06:14:12.185Z,8.42
2023-04-07T06:16:40.581Z,8.41
2023-04-07T06:19:08.472Z,8.41
2023-04-07T06:21:36.442Z,8.41
2023-04-07T06:24:19.531Z,8.42
2023-04-07T06:26:47.861Z,8.39
2023-04-07T06:29:17.367Z,8.42
2023-04-07T06:31:45.485Z,8.41
2023-04-07T06:34:13.638Z,8.40
2023-04-07T06:36:41.609Z,8.40
2023-04-07T06:39:09.779Z,8.40
2023-04-07T06:41:38.950Z,8.41
2023-04-07T06:44:07.619Z,8.40
2023-04-07T06:46:38.690Z,8.41
2023-04-07T06:49:06.509Z,8.41
2023-04-07T06:51:34.239Z,8.41
2023-04-07T06:54:02.116Z,8.42
2023-04-07T06:56:32.892Z,8.44
2023-04-07T06:59:00.653Z,8.43
2023-04-07T07:01:28.575Z,8.42
2023-04-07T07:03:58.304Z,8.44
2023-04-07T07:06:26.737Z,8.44
2023-04-07T07:08:54.618Z,8.43
2023-04-07T07:11:22.375Z,8.44
2023-04-07T07:13:50.514Z,8.45
2023-04-07T07:16:18.639Z,8.44
2023-04-07T07:18:46.575Z,8.45
2023-04-07T07:21:16.199Z,8.46
2023-04-07T07:23:44.546Z,8.45
2023-04-07T07:26:12.448Z,8.45
2023-04-07T07:28:40.414Z,8.45
2023-04-07T07:31:13.243Z,8.47
2023-04-07T07:33:41.561Z,8.44
2023-04-07T07:36:09.702Z,8.46
2023-04-07T07:38:39.925Z,8.47
2023-04-07T07:41:08.136Z,8.46
2023-04-07T07:43:37.123Z,8.47
2023-04-07T07:46:05.412Z,8.47
2023-04-07T07:48:33.419Z,8.46
2023-04-07T07:51:01.288Z,8.47
2023-04-07T07:53:29.048Z,8.48
2023-04-07T07:55:58.150Z,8.51
2023-04-07T07:58:26.235Z,8.50
2023-04-07T08:00:54.168Z,8.52
2023-04-07T08:03:22.636Z,8.51
2023-04-07T08:05:50.904Z,8.53
2023-04-07T08:08:18.735Z,8.53
2023-04-07T08:10:46.474Z,8.53
2023-04-07T08:13:16.016Z,8.54
2023-04-07T08:15:44.217Z,8.54
2023-04-07T08:18:12.175Z,8.54
2023-04-07T08:20:40.017Z,8.54
2023-04-07T08:23:07.807Z,8.54
2023-04-07T08:25:36.199Z,8.54
2023-04-07T08:28:04.128Z,8.53
2023-04-07T08:30:33.416Z,8.55
2023-04-07T08:33:01.501Z,8.53
2023-04-07T08:35:29.492Z,8.54
2023-04-07T08:37:57.482Z,8.55
2023-04-07T08:40:25.543Z,8.55
2023-04-07T08:42:53.408Z,8.57
2023-04-07T08:45:22.894Z,8.59
2023-04-07T08:47:56.880Z,8.60
2023-04-07T08:50:28.391Z,8.58
2023-04-07T08:52:58.420Z,8.61
2023-04-07T08:55:27.060Z,8.60
2023-04-07T08:57:55.827Z,8.59
2023-04-07T09:00:23.843Z,8.61
2023-04-07T09:02:53.672Z,8.63
2023-04-07T09:05:22.162Z,8.63
2023-04-07T09:07:49.941Z,8.62
2023-04-07T09:10:18.080Z,8.64
2023-04-07T09:12:46.089Z,8.62
2023-04-07T09:15:14.015Z,8.65
2023-04-07T09:17:41.885Z,8.64
2023-04-07T09:20:12.200Z,8.66
2023-04-07T09:22:42.400Z,8.66
2023-04-07T09:25:15.643Z,8.67
2023-04-07T09:27:55.527Z,8.67
2023-04-07T09:30:24.072Z,8.64
2023-04-07T09:32:52.011Z,8.65
2023-04-07T09:35:23.341Z,8.68
2023-04-07T09:38:05.496Z,8.68
2023-04-07T09:40:33.925Z,8.65
2023-04-07T09:43:02.748Z,8.66
2023-04-07T09:45:35.692Z,8.69
2023-04-07T09:48:07.688Z,8.68
2023-04-07T09:50:38.210Z,8.68
2023-04-07T09:53:06.118Z,8.67
2023-04-07T09:55:34.954Z,8.67
2023-04-07T09:58:06.376Z,8.67
2023-04-07T10:00:34.756Z,8.66
2023-04-07T10:03:03.592Z,8.68
2023-04-07T10:05:33.712Z,8.68
2023-04-07T10:08:03.693Z,8.69
2023-04-07T10:10:32.752Z,8.70
2023-04-07T10:13:00.656Z,8.69
2023-04-07T10:15:28.505Z,8.70
2023-04-07T10:17:57.290Z,8.72
2023-04-07T10:20:26.302Z,8.72
2023-04-07T10:22:56.934Z,8.76
2023-04-07T10:25:27.182Z,8.78
2023-04-07T10:28:00.635Z,8.79
2023-04-07T10:30:31.798Z,8.79
2023-04-07T10:33:00.104Z,8.80
2023-04-07T10:35:28.472Z,8.80
2023-04-07T10:38:17.202Z,8.83
2023-04-07T10:40:46.458Z,8.83
2023-04-07T10:43:15.402Z,8.82
2023-04-07T10:46:05.826Z,8.87
2023-04-07T10:48:36.613Z,8.83
2023-04-07T10:51:22.493Z,8.86
2023-04-07T10:54:29.031Z,8.82
2023-04-07T10:57:10.211Z,8.89
2023-04-07T10:59:39.413Z,8.88
2023-04-07T11:02:32.581Z,8.89
2023-04-07T11:05:01.316Z,8.91
2023-04-07T11:07:47.012Z,8.96
2023-04-07T11:10:16.484Z,8.96
2023-04-07T11:12:46.127Z,8.98
2023-04-07T11:15:21.987Z,9.01
2023-04-07T11:18:08.047Z,9.01
2023-04-07T11:20:50.441Z,9.02
2023-04-07T11:23:19.448Z,8.99
2023-04-07T11:25:49.052Z,9.03
2023-04-07T11:28:18.477Z,9.05
2023-04-07T11:30:48.652Z,9.06
2023-04-07T11:33:17.689Z,9.05
2023-04-07T11:35:50.252Z,9.10
2023-04-07T11:38:19.006Z,9.07
2023-04-07T11:40:47.598Z,9.10
2023-04-07T11:43:21.532Z,9.13
2023-04-07T11:46:05.126Z,9.14
2023-04-07T11:48:34.267Z,9.15
2023-04-07T11:51:03.151Z,9.17
2023-04-07T11:53:32.870Z,9.19
2023-04-07T11:56:02.494Z,9.20
2023-04-07T11:58:31.973Z,9.22
2023-04-07T12:01:04.965Z,9.22
2023-04-07T12:03:33.205Z,9.24
2023-04-07T12:06:01.492Z,9.26
2023-04-07T12:08:40.558Z,9.30
2023-04-07T12:11:09.224Z,9.29
2023-04-07T12:13:39.046Z,9.34
2023-04-07T12:16:07.270Z,9.35
2023-04-07T12:18:35.082Z,9.40
2023-04-07T12:21:02.925Z,9.42
2023-04-07T12:23:31.167Z,9.44
2023-04-07T12:25:58.949Z,9.46
2023-04-07T12:28:26.693Z,9.48
2023-04-07T12:30:56.238Z,9.51
2023-04-07T12:33:24.048Z,9.54
2023-04-07T12:35:51.981Z,9.55
2023-04-07T12:38:19.886Z,9.57
2023-04-07T12:40:47.758Z,9.60
2023-04-07T12:43:15.653Z,9.64
2023-04-07T12:45:43.537Z,9.65
2023-04-07T12:48:12.767Z,9.69
2023-04-07T12:50:40.911Z,9.70
2023-04-07T12:53:09.316Z,9.72
2023-04-07T12:55:37.568Z,9.75
2023-04-07T12:58:05.748Z,9.78
2023-04-07T13:00:33.672Z,9.80
2023-04-07T13:03:01.625Z,9.81
2023-04-07T13:05:31.252Z,9.85
2023-04-07T13:07:59.715Z,9.85
2023-04-07T13:10:28.655Z,9.87
2023-04-07T13:12:56.528Z,9.88
2023-04-07T13:15:24.667Z,9.89
2023-04-07T13:17:52.465Z,9.91
2023-04-07T13:20:20.984Z,9.92
2023-04-07T13:23:02.827Z,9.94
2023-04-07T13:25:35.349Z,9.91
2023-04-07T13:28:03.637Z,9.94
2023-04-07T13:30:31.609Z,9.94
2023-04-07T13:32:59.509Z,9.96
2023-04-07T13:35:27.563Z,9.96
2023-04-07T13:37:56.682Z,9.99
2023-04-07T13:40:24.704Z,9.98
2023-04-07T13:42:52.594Z,9.97
2023-04-07T13:45:20.591Z,10.00
2023-04-07T13:47:48.472Z,10.01
2023-04-07T13:50:16.858Z,10.01
2023-04-07T13:52:44.690Z,10.01
2023-04-07T13:55:13.937Z,10.04
2023-04-07T13:57:41.846Z,10.03
2023-04-07T14:00:10.653Z,10.03
2023-04-07T14:02:38.696Z,10.04
2023-04-07T14:05:07.398Z,10.03
2023-04-07T14:07:35.269Z,10.03
2023-04-07T14:10:03.155Z,10.04
2023-04-07T14:12:32.443Z,10.06
2023-04-07T14:15:00.373Z,10.05
2023-04-07T14:17:28.196Z,10.05
2023-04-07T14:19:56.147Z,10.04
2023-04-07T14:22:24.032Z,10.05
2023-04-07T14:24:52.091Z,10.06
2023-04-07T14:27:22.353Z,10.06
2023-04-07T14:29:51.837Z,10.08
2023-04-07T14:32:19.813Z,10.06
2023-04-07T14:34:48.044Z,10.08
2023-04-07T14:37:18.040Z,10.09
2023-04-07T14:39:55.320Z,10.09
2023-04-07T14:42:30.782Z,10.09
2023-04-07T14:45:01.666Z,10.14
2023-04-07T14:47:30.820Z,10.12
2023-04-07T14:49:58.856Z,10.15
2023-04-07T14:52:27.556Z,10.16
2023-04-07T14:54:56.260Z,10.19
2023-04-07T14:57:25.404Z,10.20
2023-04-07T14:59:53.218Z,10.20
2023-04-07T15:02:22.652Z,10.24
2023-04-07T15:04:50.769Z,10.24
2023-04-07T15:07:18.683Z,10.26
2023-04-07T15:09:49.161Z,10.28
2023-04-07T15:12:17.101Z,10.27
2023-04-07T15:14:45.900Z,10.28
2023-04-07T15:17:13.940Z,10.28
2023-04-07T15:19:44.134Z,10.29
2023-04-07T15:22:12.034Z,10.28
2023-04-07T15:24:39.924Z,10.28
2023-04-07T15:27:09.428Z,10.28
2023-04-07T15:29:37.316Z,10.29
2023-04-07T15:32:05.505Z,10.31
2023-04-07T15:34:33.359Z,10.30
2023-04-07T15:37:03.945Z,10.34
2023-04-07T15:39:32.303Z,10.32
2023-04-07T15:42:01.029Z,10.31
2023-04-07T15:44:28.949Z,10.32
2023-04-07T15:46:57.089Z,10.32
2023-04-07T15:49:26.228Z,10.32
2023-04-07T15:51:54.263Z,10.31
2023-04-07T15:54:23.576Z,10.32
2023-04-07T15:56:51.727Z,10.31
2023-04-07T15:59:19.614Z,10.31
2023-04-07T16:01:47.731Z,10.30
2023-04-07T16:04:16.006Z,10.30
2023-04-07T16:06:43.974Z,10.30
2023-04-07T16:09:11.867Z,10.30
2023-04-07T16:11:41.061Z,10.29
2023-04-07T16:14:09.429Z,10.27
2023-04-07T16:16:38.996Z,10.27
2023-04-07T16:19:06.919Z,10.24
2023-04-07T16:21:35.392Z,10.24
2023-04-07T16:24:03.474Z,10.24
2023-04-07T16:26:31.306Z,10.24
2023-04-07T16:29:00.584Z,10.26
2023-04-07T16:31:28.546Z,10.23
2023-04-07T16:33:56.565Z,10.22
2023-04-07T16:36:24.451Z,10.21
2023-04-07T16:38:52.800Z,10.22
2023-04-07T16:41:21.485Z,10.21
2023-04-07T16:43:49.626Z,10.20
2023-04-07T16:46:20.266Z,10.22
2023-04-07T16:48:48.672Z,10.20
2023-04-07T16:51:17.810Z,10.22
2023-04-07T16:53:45.847Z,10.20
2023-04-07T16:56:17.162Z,10.22
2023-04-07T16:58:45.184Z,10.20
2023-04-07T17:01:13.080Z,10.20
2023-04-07T17:03:42.659Z,10.22
2023-04-07T17:06:10.664Z,10.21
2023-04-07T17:08:39.721Z,10.21
2023-04-07T17:11:08.885Z,10.21
2023-04-07T17:13:37.603Z,10.21
2023-04-07T17:16:05.990Z,10.21
2023-04-07T17:18:34.642Z,10.21
2023-04-07T17:21:03.887Z,10.22
2023-04-07T17:23:31.846Z,10.20
2023-04-07T17:25:59.716Z,10.20
2023-04-07T17:28:29.891Z,10.19
2023-04-07T17:30:58.409Z,10.18
2023-04-07T17:33:26.354Z,10.18
2023-04-07T17:35:54.333Z,10.17
2023-04-07T17:38:23.586Z,10.17
2023-04-07T17:40:58.058Z,10.18
2023-04-07T17:43:26.076Z,10.14
2023-04-07T17:45:53.913Z,10.12
2023-04-07T17:48:21.955Z,10.12
2023-04-07T17:50:49.990Z,10.12
2023-04-07T17:53:18.115Z,10.11
2023-04-07T17:55:47.404Z,10.11
2023-04-07T17:58:15.569Z,10.09
2023-04-07T18:00:43.859Z,10.09
2023-04-07T18:03:14.305Z,10.08
2023-04-07T18:05:44.826Z,10.08
2023-04-07T18:08:12.854Z,10.07
2023-04-07T18:10:41.398Z,10.06
2023-04-07T18:13:10.669Z,10.06
2023-04-07T18:15:38.610Z,10.04
2023-04-07T18:18:06.566Z,10.03
2023-04-07T18:20:34.504Z,10.01
2023-04-07T18:23:02.475Z,10.02
2023-04-07T18:25:30.425Z,10.00
2023-04-07T18:27:58.741Z,10.00
2023-04-07T18:30:27.976Z,10.00
2023-04-07T18:32:55.864Z,9.98
2023-04-07T18:35:23.809Z,9.97
2023-04-07T18:37:52.034Z,9.97
2023-04-07T18:40:19.991Z,9.96
2023-04-07T18:42:47.919Z,9.95
2023-04-07T18:45:16.037Z,9.95
2023-04-07T18:47:45.336Z,9.96
2023-04-07T18:50:13.191Z,9.94
2023-04-07T18:52:41.044Z,9.91
2023-04-07T18:55:11.336Z,9.91
2023-04-07T18:57:39.467Z,9.89
2023-04-07T19:00:09.882Z,9.89
2023-04-07T19:02:38.712Z,9.88
2023-04-07T19:05:08.399Z,9.88
2023-04-07T19:07:36.301Z,9.85
2023-04-07T19:10:04.335Z,9.85
2023-04-07T19:12:32.118Z,9.84
2023-04-07T19:15:00.031Z,9.83
2023-04-07T19:17:29.046Z,9.82
2023-04-07T19:19:56.969Z,9.81
2023-04-07T19:22:26.306Z,9.81
2023-04-07T19:24:54.199Z,9.79
2023-04-07T19:27:23.317Z,9.79
2023-04-07T19:29:51.578Z,9.77
2023-04-07T19:32:19.476Z,9.78
2023-04-07T19:34:47.331Z,9.78
2023-04-07T19:37:16.235Z,9.76
2023-04-07T19:39:59.684Z,9.77
2023-04-07T19:42:30.583Z,9.74
2023-04-07T19:45:00.340Z,9.75
2023-04-07T19:47:28.283Z,9.75
2023-04-07T19:49:56.153Z,9.74
2023-04-07T19:52:24.137Z,9.73
2023-04-07T19:54:53.505Z,9.74
2023-04-07T19:57:21.327Z,9.72
2023-04-07T19:59:49.635Z,9.72
2023-04-07T20:02:17.814Z,9.71
2023-04-07T20:04:45.972Z,9.71
2023-04-07T20:07:13.832Z,9.71
2023-04-07T20:09:41.642Z,9.71
2023-04-07T20:12:10.886Z,9.71
2023-04-07T20:14:38.723Z,9.69
2023-04-07T20:17:06.652Z,9.70
2023-04-07T20:19:34.545Z,9.69
2023-04-07T20:22:02.414Z,9.69
2023-04-07T20:24:30.403Z,9.69
2023-04-07T20:26:58.750Z,9.69
2023-04-07T20:29:29.056Z,9.70
2023-04-07T20:31:56.961Z,9.68
2023-04-07T20:34:25.512Z,9.69
2023-04-07T20:36:53.473Z,9.69
2023-04-07T20:39:22.189Z,9.68
2023-04-07T20:41:50.689Z,9.68
2023-04-07T20:44:18.795Z,9.67
2023-04-07T20:46:48.309Z,9.68
2023-04-07T20:49:16.234Z,9.66
2023-04-07T20:51:44.672Z,9.65
2023-04-07T20:54:12.563Z,9.65
2023-04-07T20:56:40.579Z,9.63
2023-04-07T20:59:08.490Z,9.64
2023-04-07T21:01:36.531Z,9.65
2023-04-07T21:04:06.472Z,9.65
2023-04-07T21:06:34.558Z,9.62
2023-04-07T21:09:02.583Z,9.62
2023-04-07T21:11:30.458Z,9.61
2023-04-07T21:13:58.342Z,9.61
2023-04-07T21:16:26.356Z,9.61
2023-04-07T21:18:54.332Z,9.59
2023-04-07T21:21:24.079Z,9.60
2023-04-07T21:23:51.927Z,9.59
2023-04-07T21:26:20.117Z,9.57
2023-04-07T21:28:48.237Z,9.57
2023-04-07T21:31:22.323Z,9.58
2023-04-07T21:33:51.123Z,9.55
2023-04-07T21:36:19.317Z,9.55
2023-04-07T21:38:48.952Z,9.56
2023-04-07T21:41:17.125Z,9.54
2023-04-07T21:43:45.346Z,9.54
2023-04-07T21:46:14.158Z,9.55
2023-04-07T21:48:42.295Z,9.54
2023-04-07T21:51:10.220Z,9.54
2023-04-07T21:53:38.438Z,9.54
2023-04-07T21:56:09.316Z,9.55
2023-04-07T21:58:37.564Z,9.53
2023-04-07T22:01:05.797Z,9.52
2023-04-07T22:03:34.133Z,9.52
2023-04-07T22:06:02.461Z,9.52
2023-04-07T22:08:30.415Z,9.51
2023-04-07T22:10:58.856Z,9.50
2023-04-07T22:13:28.292Z,9.50
2023-04-07T22:15:56.733Z,9.49
2023-04-07T22:18:24.749Z,9.48
2023-04-07T22:20:52.674Z,9.47
2023-04-07T22:23:20.669Z,9.46
2023-04-07T22:25:49.157Z,9.45
2023-04-07T22:28:17.115Z,9.45
2023-04-07T22:30:46.341Z,9.45
2023-04-07T22:33:14.441Z,9.43
2023-04-07T22:35:42.431Z,9.42
2023-04-07T22:38:10.432Z,9.41
2023-04-07T22:40:38.272Z,9.41
2023-04-07T22:43:06.271Z,9.41
2023-04-07T22:45:35.380Z,9.41
2023-04-07T22:48:04.812Z,9.42
2023-04-07T22:50:32.721Z,9.40
2023-04-07T22:53:00.645Z,9.40
2023-04-07T22:55:29.335Z,9.40
2023-04-07T22:57:57.108Z,9.40
2023-04-07T23:00:24.937Z,9.40
2023-04-07T23:02:53.134Z,9.39
2023-04-07T23:05:22.753Z,9.40
2023-04-07T23:07:51.498Z,9.39
2023-04-07T23:10:19.479Z,9.38
2023-04-07T23:12:47.532Z,9.37
2023-04-07T23:15:15.451Z,9.36
2023-04-07T23:17:43.434Z,9.35
2023-04-07T23:20:11.727Z,9.34
2023-04-07T23:22:43.829Z,9.35
2023-04-07T23:25:11.643Z,9.29
2023-04-07T23:27:39.477Z,9.31
2023-04-07T23:30:08.814Z,9.30
2023-04-07T23:32:36.600Z,9.28
2023-04-07T23:35:04.911Z,9.27
2023-04-07T23:37:32.749Z,9.27
2023-04-07T23:40:02.044Z,9.27
2023-04-07T23:42:29.953Z,9.25
2023-04-07T23:44:57.868Z,9.23
2023-04-07T23:47:25.828Z,9.23
2023-04-07T23:49:53.709Z,9.24
2023-04-07T23:52:21.981Z,9.23
2023-04-07T23:54:49.894Z,9.23
2023-04-07T23:57:19.069Z,9.23
2023-04-07T23:59:46.968Z,9.21
